La Palma, California
Current Conditions -  °F | °C
As of 3:53 PM on Wednesday 26 Nov 2014 (Local Time) from KFUL Reporting Station
Clear Clear  
Wind Chill: 84°   Ceiling: Unl
Heat Index: 84°   Visibility: 10mi
Dew Point: 36°   Wind: 6mph
Humidity: 18%   Direction: 220°SW
Pressure: 30.1"   Gusts: NA
Location:  33.85°N, 118.03°W
Report Text: KFUL 262353Z 22005KT 10SM CLR 29/02 A3010 RMK AO2 SLP193 T02890022 10317 20211 56010
Loading
Personal Weather Stations






























Interactive Weather Map New forecast layout! Learn more

10-Day Weather Forecast

Advertisements
Track Severe Weather on mobile